Time;durP1;ratioP1;P1;durP2;ratioP2;P2;SDS_P1;SDS_P2;PMS_P1;PMS_P2;Temp;Humidity;BMP_temperature;BMP_pressure;BME280_temperature;BME280_humidity;BME280_pressure;Samples;Min_cycle;Max_cycle;Signal;HPM_P1;HPM_P2
2022/10/22 00:02:06;;;;;;;32.88;20.63;;;;;;;;;;5094497;28;20056;-76
2022/10/22 00:04:33;;;;;;;33.20;19.88;;;;;;;;;;5094195;28;20064;-76
2022/10/22 00:06:59;;;;;;;39.22;21.95;;;;;;;;;;5094250;28;20035;-76
2022/10/22 00:09:24;;;;;;;32.83;19.98;;;;;;;;;;5095219;28;20036;-76
2022/10/22 00:11:51;;;;;;;31.55;20.15;;;;;;;;;;5093111;28;20068;-77
2022/10/22 00:14:17;;;;;;;38.17;20.83;;;;;;;;;;5094382;28;20030;-77
2022/10/22 00:16:43;;;;;;;33.13;19.55;;;;;;;;;;5095400;28;20446;-77
2022/10/22 00:19:10;;;;;;;36.53;20.88;;;;;;;;;;5096462;28;20028;-76
2022/10/22 00:21:36;;;;;;;34.42;21.15;;;;;;;;;;5093966;28;20198;-77
2022/10/22 00:24:02;;;;;;;34.42;19.45;;;;;;;;;;5094411;28;20464;-75
2022/10/22 00:26:28;;;;;;;29.33;19.77;;;;;;;;;;5095269;28;20024;-77
2022/10/22 00:28:54;;;;;;;31.45;20.73;;;;;;;;;;5095997;28;20024;-76
2022/10/22 00:31:20;;;;;;;34.35;20.38;;;;;;;;;;5095228;28;20460;-77
2022/10/22 00:33:48;;;;;;;30.00;19.38;;;;;;;;;;5097900;28;20016;-78
2022/10/22 00:36:14;;;;;;;32.15;19.83;;;;;;;;;;5094643;28;20024;-77
2022/10/22 00:38:40;;;;;;;33.45;20.90;;;;;;;;;;5095337;28;20070;-76
2022/10/22 00:41:07;;;;;;;34.35;20.73;;;;;;;;;;5093848;28;20426;-74
2022/10/22 00:43:33;;;;;;;33.17;21.25;;;;;;;;;;5093310;28;20024;-76
2022/10/22 00:45:59;;;;;;;33.45;20.98;;;;;;;;;;5094623;28;20077;-77
2022/10/22 00:48:26;;;;;;;31.15;18.80;;;;;;;;;;5094746;28;20507;-77
2022/10/22 00:50:56;;;;;;;35.45;21.08;;;;;;;;;;5097628;28;20035;-76
2022/10/22 00:53:34;;;;;;;35.22;20.50;;;;;;;;;;5094761;28;20101;-75
2022/10/22 00:56:00;;;;;;;35.88;20.48;;;;;;;;;;5106240;28;20079;-77
2022/10/22 00:58:28;;;;;;;38.75;21.40;;;;;;;;;;5092898;28;20020;-76
2022/10/22 01:00:55;;;;;;;31.20;19.92;;;;;;;;;;5094810;28;20089;-77
2022/10/22 01:03:21;;;;;;;30.83;19.83;;;;;;;;;;5093680;28;20028;-76
2022/10/22 01:05:57;;;;;;;31.73;21.25;;;;;;;;;;5094874;28;20421;-76
2022/10/22 01:08:39;;;;;;;36.72;21.70;;;;;;;;;;5093229;28;20028;-76
2022/10/22 01:11:19;;;;;;;33.17;21.52;;;;;;;;;;5095622;22;20455;-74
2022/10/22 01:14:01;;;;;;;34.95;20.10;;;;;;;;;;5072174;28;20079;-76
2022/10/22 01:16:34;;;;;;;31.90;21.83;;;;;;;;;;5071879;28;20040;-74
2022/10/22 01:19:23;;;;;;;38.13;23.55;;;;;;;;;;5073335;28;20366;-74
2022/10/22 01:21:52;;;;;;;38.53;22.23;;;;;;;;;;5074115;28;20090;-76
2022/10/22 01:24:33;;;;;;;36.03;21.77;;;;;;;;;;5085844;28;20050;-74
2022/10/22 01:27:08;;;;;;;32.08;20.52;;;;;;;;;;5094257;28;20154;-76
2022/10/22 01:29:38;;;;;;;35.50;21.27;;;;;;;;;;5095980;28;20027;-76
2022/10/22 01:32:07;;;;;;;34.38;22.17;;;;;;;;;;5096523;28;20017;-73
2022/10/22 01:34:33;;;;;;;33.70;21.95;;;;;;;;;;5097375;28;20009;-73
2022/10/22 01:36:59;;;;;;;34.08;21.45;;;;;;;;;;5085949;28;20096;-73
2022/10/22 01:39:26;;;;;;;41.70;21.98;;;;;;;;;;5072429;28;20032;-74
2022/10/22 01:41:54;;;;;;;33.15;21.55;;;;;;;;;;5074163;28;20025;-76
2022/10/22 01:44:27;;;;;;;31.45;20.65;;;;;;;;;;5080130;28;20081;-76
2022/10/22 01:47:00;;;;;;;35.40;20.80;;;;;;;;;;5077026;28;20063;-76
2022/10/22 01:49:36;;;;;;;34.45;22.13;;;;;;;;;;5078369;28;20404;-76
2022/10/22 01:52:09;;;;;;;41.17;21.67;;;;;;;;;;5095411;28;20016;-74
2022/10/22 01:54:35;;;;;;;32.58;20.75;;;;;;;;;;5097889;28;20017;-74
2022/10/22 01:57:23;;;;;;;35.85;23.92;;;;;;;;;;5085521;28;20043;-76
2022/10/22 02:00:04;;;;;;;41.88;21.75;;;;;;;;;;5084930;28;20025;-76
2022/10/22 02:02:30;;;;;;;29.85;19.13;;;;;;;;;;5093345;28;20027;-75
2022/10/22 02:05:07;;;;;;;30.90;18.42;;;;;;;;;;5090968;28;20079;-79
2022/10/22 02:07:40;;;;;;;24.77;17.73;;;;;;;;;;5077824;28;20028;-77
2022/10/22 02:10:08;;;;;;;39.08;23.23;;;;;;;;;;5077197;28;20036;-77
2022/10/22 02:12:34;;;;;;;35.90;22.55;;;;;;;;;;5077948;28;20032;-77
2022/10/22 02:15:01;;;;;;;42.83;23.70;;;;;;;;;;5079428;28;20036;-75
2022/10/22 02:17:28;;;;;;;37.75;22.98;;;;;;;;;;5079810;28;20485;-76
2022/10/22 02:19:56;;;;;;;32.05;21.17;;;;;;;;;;5081589;28;20039;-77
2022/10/22 02:22:23;;;;;;;31.67;20.83;;;;;;;;;;5083467;28;20028;-78
2022/10/22 02:24:49;;;;;;;32.03;19.80;;;;;;;;;;5079479;28;20110;-77
2022/10/22 02:27:15;;;;;;;28.20;19.08;;;;;;;;;;5076623;28;20017;-76
2022/10/22 02:29:46;;;;;;;30.85;19.60;;;;;;;;;;5077934;28;20077;-77
2022/10/22 02:32:16;;;;;;;31.20;19.58;;;;;;;;;;5078502;28;20067;-77
2022/10/22 02:34:41;;;;;;;28.48;19.17;;;;;;;;;;5078518;28;20029;-75
2022/10/22 02:37:08;;;;;;;31.65;19.70;;;;;;;;;;5078738;28;20044;-76
2022/10/22 02:39:35;;;;;;;29.77;19.73;;;;;;;;;;5088384;28;20028;-74
2022/10/22 02:42:02;;;;;;;31.13;19.80;;;;;;;;;;5094774;28;20020;-75
2022/10/22 02:44:28;;;;;;;28.17;18.40;;;;;;;;;;5095240;28;20048;-76
2022/10/22 02:46:54;;;;;;;29.15;18.33;;;;;;;;;;5084493;28;20024;-76
2022/10/22 02:49:20;;;;;;;27.40;18.60;;;;;;;;;;5077492;28;20116;-77
2022/10/22 02:51:46;;;;;;;35.92;19.85;;;;;;;;;;5075929;28;20445;-77
2022/10/22 02:54:12;;;;;;;32.90;18.98;;;;;;;;;;5075077;28;20063;-77
2022/10/22 02:56:38;;;;;;;28.17;17.70;;;;;;;;;;5078278;28;20032;-77
2022/10/22 02:59:04;;;;;;;32.33;18.70;;;;;;;;;;5077075;28;20507;-77
2022/10/22 03:01:30;;;;;;;27.60;17.42;;;;;;;;;;5076912;28;20060;-75
2022/10/22 03:03:56;;;;;;;26.73;17.35;;;;;;;;;;5076287;28;20512;-76
2022/10/22 03:06:22;;;;;;;29.10;17.95;;;;;;;;;;5073647;28;20035;-77
2022/10/22 03:08:48;;;;;;;48.13;18.42;;;;;;;;;;5076550;28;20037;-76
2022/10/22 03:11:13;;;;;;;27.05;17.65;;;;;;;;;;5075811;28;20044;-78
2022/10/22 03:13:39;;;;;;;29.20;17.65;;;;;;;;;;5076645;28;20175;-77
2022/10/22 03:16:05;;;;;;;33.63;20.67;;;;;;;;;;5078139;28;20020;-76
2022/10/22 03:18:32;;;;;;;27.00;18.48;;;;;;;;;;5076198;28;20047;-77
2022/10/22 03:21:04;;;;;;;26.00;18.73;;;;;;;;;;5077471;28;20071;-77
2022/10/22 03:23:31;;;;;;;33.67;19.27;;;;;;;;;;5076025;28;20465;-77
2022/10/22 03:25:58;;;;;;;24.58;15.73;;;;;;;;;;5074274;28;20082;-78
2022/10/22 03:28:25;;;;;;;32.30;17.42;;;;;;;;;;5075537;28;20043;-76
2022/10/22 03:30:51;;;;;;;29.30;18.02;;;;;;;;;;5074448;28;20127;-76
2022/10/22 03:33:17;;;;;;;29.23;17.60;;;;;;;;;;5074783;28;20048;-77
2022/10/22 03:35:45;;;;;;;31.95;20.67;;;;;;;;;;5076233;28;20440;-77
2022/10/22 03:38:11;;;;;;;31.17;22.17;;;;;;;;;;5075221;28;20063;-76
2022/10/22 03:40:37;;;;;;;35.70;22.65;;;;;;;;;;5080077;28;20388;-78
2022/10/22 03:43:03;;;;;;;33.60;21.20;;;;;;;;;;5083771;28;20035;-74
2022/10/22 03:45:29;;;;;;;41.75;23.35;;;;;;;;;;5087882;28;20004;-75
2022/10/22 03:47:55;;;;;;;40.90;24.85;;;;;;;;;;5097191;28;20044;-74
2022/10/22 03:50:21;;;;;;;54.78;29.70;;;;;;;;;;5096692;28;20092;-74
2022/10/22 03:52:47;;;;;;;53.58;29.73;;;;;;;;;;5096449;28;20033;-74
2022/10/22 03:55:13;;;;;;;47.50;26.67;;;;;;;;;;5094988;28;20072;-75
2022/10/22 03:57:39;;;;;;;47.47;29.95;;;;;;;;;;5090276;28;20029;-76
2022/10/22 04:00:05;;;;;;;51.65;30.58;;;;;;;;;;5083888;28;20330;-76
2022/10/22 04:02:31;;;;;;;66.93;32.20;;;;;;;;;;5087349;28;20021;-75
2022/10/22 04:04:57;;;;;;;86.40;33.55;;;;;;;;;;5081791;28;20499;-76
2022/10/22 04:07:23;;;;;;;65.68;32.85;;;;;;;;;;5083707;28;20224;-76
2022/10/22 04:09:49;;;;;;;56.85;33.78;;;;;;;;;;5085713;28;20036;-76
2022/10/22 04:12:15;;;;;;;76.47;36.08;;;;;;;;;;5087201;28;20275;-76
2022/10/22 04:14:41;;;;;;;63.00;34.80;;;;;;;;;;5075504;28;20060;-78
2022/10/22 04:17:07;;;;;;;65.30;34.90;;;;;;;;;;5074432;28;20035;-75
2022/10/22 04:19:33;;;;;;;85.50;38.38;;;;;;;;;;5096296;28;20063;-75
2022/10/22 04:21:59;;;;;;;58.55;33.42;;;;;;;;;;5090570;28;20036;-76
2022/10/22 04:24:26;;;;;;;93.40;38.78;;;;;;;;;;5074745;28;20028;-77
2022/10/22 04:26:55;;;;;;;63.25;38.13;;;;;;;;;;5070666;28;20100;-75
2022/10/22 04:29:21;;;;;;;67.05;36.25;;;;;;;;;;5081975;28;20110;-77
2022/10/22 04:31:47;;;;;;;73.53;39.70;;;;;;;;;;5084838;28;20032;-76
2022/10/22 04:34:13;;;;;;;72.05;39.33;;;;;;;;;;5080055;28;20033;-79
2022/10/22 04:36:39;;;;;;;153.90;42.85;;;;;;;;;;5073128;28;20123;-77
2022/10/22 04:39:05;;;;;;;81.35;40.47;;;;;;;;;;5083495;28;20107;-77
2022/10/22 04:41:32;;;;;;;68.72;38.58;;;;;;;;;;5082572;28;20021;-77
2022/10/22 04:43:59;;;;;;;76.47;41.03;;;;;;;;;;5075459;28;20021;-77
2022/10/22 04:46:26;;;;;;;78.95;40.63;;;;;;;;;;5073555;28;20025;-78
2022/10/22 04:48:52;;;;;;;74.75;41.97;;;;;;;;;;5073997;28;20039;-76
2022/10/22 04:51:19;;;;;;;84.97;43.58;;;;;;;;;;5073467;28;20111;-76
2022/10/22 04:53:45;;;;;;;95.13;44.25;;;;;;;;;;5074087;28;20122;-75
2022/10/22 04:56:19;;;;;;;86.45;43.05;;;;;;;;;;5074082;28;20043;-76
2022/10/22 04:58:45;;;;;;;75.53;40.93;;;;;;;;;;5075196;28;20077;-77
2022/10/22 05:01:13;;;;;;;104.07;40.63;;;;;;;;;;5080375;28;20266;-77
2022/10/22 05:03:39;;;;;;;88.90;42.35;;;;;;;;;;5084278;28;20029;-76
2022/10/22 05:06:05;;;;;;;85.63;42.72;;;;;;;;;;5089530;28;20024;-74
2022/10/22 05:08:31;;;;;;;77.45;43.45;;;;;;;;;;5084495;28;20047;-77
2022/10/22 05:10:56;;;;;;;71.90;42.03;;;;;;;;;;5084953;28;20032;-77
2022/10/22 05:13:22;;;;;;;73.40;41.53;;;;;;;;;;5077026;28;20025;-78
2022/10/22 05:15:48;;;;;;;80.47;43.90;;;;;;;;;;5073854;28;20052;-77
2022/10/22 05:18:14;;;;;;;83.28;44.13;;;;;;;;;;5073411;28;20025;-77
2022/10/22 05:20:41;;;;;;;78.78;42.38;;;;;;;;;;5073494;28;20080;-74
2022/10/22 05:23:07;;;;;;;144.40;42.30;;;;;;;;;;5075012;28;20056;-76
2022/10/22 05:25:37;;;;;;;100.38;41.15;;;;;;;;;;5072356;28;20303;-76
2022/10/22 05:28:03;;;;;;;72.65;41.50;;;;;;;;;;5074006;28;20017;-77
2022/10/22 05:30:29;;;;;;;69.10;38.88;;;;;;;;;;5078761;28;20099;-77
2022/10/22 05:32:55;;;;;;;70.68;40.25;;;;;;;;;;5079139;28;20078;-76
2022/10/22 05:35:21;;;;;;;79.72;38.33;;;;;;;;;;5078207;28;20025;-77
2022/10/22 05:37:47;;;;;;;70.57;40.08;;;;;;;;;;5080987;28;20028;-77
2022/10/22 05:40:13;;;;;;;73.60;40.05;;;;;;;;;;5079224;28;20024;-77
2022/10/22 05:42:39;;;;;;;130.35;41.92;;;;;;;;;;5078478;28;20047;-77
2022/10/22 05:45:05;;;;;;;73.20;39.40;;;;;;;;;;5076258;28;20044;-77
2022/10/22 05:47:31;;;;;;;66.63;38.25;;;;;;;;;;5077610;28;20482;-77
2022/10/22 05:49:57;;;;;;;67.90;38.70;;;;;;;;;;5076114;28;20020;-78
2022/10/22 05:52:23;;;;;;;79.35;40.78;;;;;;;;;;5077717;28;20029;-77
2022/10/22 05:54:49;;;;;;;65.00;37.20;;;;;;;;;;5080541;28;20482;-76
2022/10/22 05:57:15;;;;;;;65.97;37.92;;;;;;;;;;5081257;28;20028;-77
2022/10/22 05:59:41;;;;;;;66.00;37.33;;;;;;;;;;5077883;28;20355;-73
2022/10/22 06:02:10;;;;;;;60.42;36.88;;;;;;;;;;5077892;28;20091;-76
2022/10/22 06:04:36;;;;;;;65.70;37.35;;;;;;;;;;5078508;28;20020;-74
2022/10/22 06:07:02;;;;;;;61.80;36.15;;;;;;;;;;5087139;28;20041;-75
2022/10/22 06:09:34;;;;;;;55.35;34.53;;;;;;;;;;5094244;28;20021;-76
2022/10/22 06:12:00;;;;;;;53.03;34.28;;;;;;;;;;5098237;28;20029;-73
2022/10/22 06:14:26;;;;;;;63.20;35.10;;;;;;;;;;5097906;28;20055;-72
2022/10/22 06:16:53;;;;;;;57.05;33.97;;;;;;;;;;5085263;28;20033;-77
2022/10/22 06:19:20;;;;;;;51.67;31.45;;;;;;;;;;5077427;28;20191;-74
2022/10/22 06:21:46;;;;;;;57.25;31.92;;;;;;;;;;5077927;28;20021;-73
2022/10/22 06:24:12;;;;;;;52.97;31.55;;;;;;;;;;5079088;28;20021;-74
2022/10/22 06:26:39;;;;;;;49.83;31.00;;;;;;;;;;5082187;28;20107;-74
2022/10/22 06:29:05;;;;;;;57.47;33.35;;;;;;;;;;5078522;28;20021;-76
2022/10/22 06:31:35;;;;;;;53.42;31.90;;;;;;;;;;5077246;28;20367;-74
2022/10/22 06:34:01;;;;;;;56.22;31.63;;;;;;;;;;5075731;28;20027;-74
2022/10/22 06:36:27;;;;;;;57.72;31.80;;;;;;;;;;5077521;28;20028;-74
2022/10/22 06:38:54;;;;;;;52.28;30.20;;;;;;;;;;5076315;28;20025;-75
2022/10/22 06:41:20;;;;;;;53.78;31.05;;;;;;;;;;5075459;28;20497;-73
2022/10/22 06:43:46;;;;;;;47.00;30.95;;;;;;;;;;5076748;28;20029;-74
2022/10/22 06:46:13;;;;;;;49.05;30.90;;;;;;;;;;5075291;28;20388;-75
2022/10/22 06:48:39;;;;;;;50.20;29.63;;;;;;;;;;5077099;28;20039;-73
2022/10/22 06:51:07;;;;;;;45.38;27.95;;;;;;;;;;5080597;28;20180;-74
2022/10/22 06:53:33;;;;;;;52.58;31.85;;;;;;;;;;5089078;28;20029;-72
2022/10/22 06:55:59;;;;;;;41.88;29.25;;;;;;;;;;5086711;28;20029;-73
2022/10/22 06:58:25;;;;;;;49.08;29.33;;;;;;;;;;5079485;28;20027;-74
2022/10/22 07:00:59;;;;;;;46.80;29.10;;;;;;;;;;5079243;28;20423;-75
2022/10/22 07:03:25;;;;;;;;;;;;;;;;;;5076957;28;20024;-74
2022/10/22 07:05:51;;;;;;;42.13;26.88;;;;;;;;;;5074623;28;19911;-74
2022/10/22 07:08:17;;;;;;;44.38;27.50;;;;;;;;;;5076630;28;20044;-75
2022/10/22 07:10:43;;;;;;;44.40;27.80;;;;;;;;;;5078716;28;20039;-73
2022/10/22 07:13:09;;;;;;;49.47;28.90;;;;;;;;;;5076406;28;20024;-73
2022/10/22 07:15:35;;;;;;;48.33;28.58;;;;;;;;;;5075614;28;20082;-73
2022/10/22 07:18:03;;;;;;;42.53;26.92;;;;;;;;;;5074940;28;20028;-72
2022/10/22 07:20:29;;;;;;;41.45;26.83;;;;;;;;;;5075117;28;20067;-73
2022/10/22 07:22:55;;;;;;;58.97;37.72;;;;;;;;;;5075172;28;20397;-74
2022/10/22 07:25:21;;;;;;;70.65;40.90;;;;;;;;;;5075861;28;20024;-73
2022/10/22 07:27:47;;;;;;;64.35;38.00;;;;;;;;;;5077302;28;20029;-73
2022/10/22 07:30:13;;;;;;;41.80;27.05;;;;;;;;;;5076468;28;20106;-73
2022/10/22 07:32:39;;;;;;;38.65;24.65;;;;;;;;;;5074712;28;20031;-72
2022/10/22 07:35:05;;;;;;;35.97;23.48;;;;;;;;;;5076419;28;20388;-72
2022/10/22 07:37:31;;;;;;;37.20;24.40;;;;;;;;;;5074098;28;20024;-73
2022/10/22 07:39:57;;;;;;;38.35;24.92;;;;;;;;;;5076022;28;20032;-73
2022/10/22 07:42:23;;;;;;;33.95;22.80;;;;;;;;;;5075834;28;20035;-74
2022/10/22 07:44:49;;;;;;;35.17;22.88;;;;;;;;;;5075957;28;20028;-74
2022/10/22 07:47:15;;;;;;;35.92;22.92;;;;;;;;;;5075268;28;20024;-73
2022/10/22 07:49:41;;;;;;;39.90;23.30;;;;;;;;;;5075084;28;20028;-72
2022/10/22 07:52:07;;;;;;;38.50;23.48;;;;;;;;;;5079736;28;20040;-74
2022/10/22 07:54:33;;;;;;;33.13;22.73;;;;;;;;;;5080499;28;20038;-73
2022/10/22 07:56:59;;;;;;;48.15;27.98;;;;;;;;;;5077103;28;20465;-73
2022/10/22 07:59:25;;;;;;;41.58;22.70;;;;;;;;;;5076139;28;20609;-72
2022/10/22 08:01:51;;;;;;;33.53;21.65;;;;;;;;;;5073544;28;20048;-72
2022/10/22 08:04:17;;;;;;;44.70;24.35;;;;;;;;;;5072498;28;20032;-73
2022/10/22 08:06:42;;;;;;;34.63;21.48;;;;;;;;;;5073983;28;20059;-72
2022/10/22 08:09:08;;;;;;;34.95;20.50;;;;;;;;;;5074845;28;20029;-73
2022/10/22 08:11:34;;;;;;;32.17;21.08;;;;;;;;;;5075186;28;20047;-73
2022/10/22 08:14:00;;;;;;;37.92;21.42;;;;;;;;;;5075268;28;20546;-71
2022/10/22 08:16:26;;;;;;;29.33;18.88;;;;;;;;;;5074956;28;20074;-73
2022/10/22 08:18:53;;;;;;;28.33;19.08;;;;;;;;;;5078433;28;20028;-72
2022/10/22 08:21:19;;;;;;;30.92;20.55;;;;;;;;;;5081009;28;20094;-74
2022/10/22 08:23:45;;;;;;;28.80;20.58;;;;;;;;;;5076190;28;20080;-75
2022/10/22 08:26:11;;;;;;;28.27;20.52;;;;;;;;;;5075308;28;20064;-73
2022/10/22 08:28:37;;;;;;;35.67;19.15;;;;;;;;;;5080627;28;20082;-74
2022/10/22 08:31:04;;;;;;;27.77;18.98;;;;;;;;;;5097131;28;20024;-73
2022/10/22 08:33:30;;;;;;;30.73;17.67;;;;;;;;;;5095903;28;20036;-75
2022/10/22 08:35:56;;;;;;;27.48;17.20;;;;;;;;;;5092723;28;20017;-73
2022/10/22 08:38:22;;;;;;;31.27;17.25;;;;;;;;;;5097117;28;20074;-75
2022/10/22 08:41:00;;;;;;;28.20;17.65;;;;;;;;;;5088842;28;20032;-73
2022/10/22 08:43:38;;;;;;;29.88;17.92;;;;;;;;;;5074281;28;20035;-74
2022/10/22 08:46:22;;;;;;;36.10;17.42;;;;;;;;;;5073218;28;20035;-73
2022/10/22 08:48:59;;;;;;;25.58;14.68;;;;;;;;;;5073730;28;20033;-74
2022/10/22 08:51:26;;;;;;;26.90;14.95;;;;;;;;;;5074804;28;20024;-73
2022/10/22 08:54:05;;;;;;;26.23;14.00;;;;;;;;;;5074475;28;20036;-73
2022/10/22 08:56:32;;;;;;;22.52;13.30;;;;;;;;;;5074755;28;20028;-73
2022/10/22 08:59:13;;;;;;;24.38;13.25;;;;;;;;;;5075225;28;20492;-74
2022/10/22 09:01:43;;;;;;;20.95;11.57;;;;;;;;;;5075057;28;20358;-72
2022/10/22 09:04:25;;;;;;;23.77;12.27;;;;;;;;;;5074199;28;20118;-73
2022/10/22 09:07:03;;;;;;;26.33;11.65;;;;;;;;;;5074503;28;20033;-74
2022/10/22 09:09:33;;;;;;;28.75;14.07;;;;;;;;;;5072726;28;20029;-73
2022/10/22 09:12:00;;;;;;;22.48;9.48;;;;;;;;;;5072999;28;20036;-73
2022/10/22 09:14:26;;;;;;;20.23;9.40;;;;;;;;;;5073387;28;20036;-72
2022/10/22 09:17:12;;;;;;;25.27;12.02;;;;;;;;;;5072803;28;20028;-72
2022/10/22 09:19:56;;;;;;;19.52;9.60;;;;;;;;;;5074928;28;20424;-72
2022/10/22 09:22:25;;;;;;;19.90;8.00;;;;;;;;;;5073883;28;20106;-74
2022/10/22 09:25:11;;;;;;;20.40;8.52;;;;;;;;;;5074118;28;20028;-73
2022/10/22 09:27:37;;;;;;;15.32;6.50;;;;;;;;;;5059102;28;20044;-74
2022/10/22 09:30:03;;;;;;;16.05;8.20;;;;;;;;;;5072175;28;20029;-74
2022/10/22 09:32:29;;;;;;;14.63;7.00;;;;;;;;;;5073306;28;20481;-74
2022/10/22 09:34:56;;;;;;;14.90;6.97;;;;;;;;;;5073322;28;20032;-73
2022/10/22 09:37:25;;;;;;;22.35;7.15;;;;;;;;;;5076496;28;20102;-74
2022/10/22 09:39:51;;;;;;;18.90;6.95;;;;;;;;;;5082071;28;20031;-73
2022/10/22 09:42:18;;;;;;;13.85;5.88;;;;;;;;;;5078482;28;20032;-72
2022/10/22 09:44:49;;;;;;;20.13;6.45;;;;;;;;;;5074213;28;20488;-73
2022/10/22 09:47:30;;;;;;;15.82;6.45;;;;;;;;;;5073969;28;20150;-74
2022/10/22 09:50:18;;;;;;;24.20;5.90;;;;;;;;;;5071789;28;20498;-74
2022/10/22 09:52:54;;;;;;;20.30;6.35;;;;;;;;;;5073401;28;20025;-72
2022/10/22 09:55:20;;;;;;;20.95;5.57;;;;;;;;;;5072984;28;20028;-74
2022/10/22 09:57:57;;;;;;;14.60;5.82;;;;;;;;;;5072909;28;20028;-72
2022/10/22 10:00:24;;;;;;;16.70;5.43;;;;;;;;;;5076395;28;20035;-74
2022/10/22 10:02:53;;;;;;;15.73;5.43;;;;;;;;;;5077051;28;20394;-73
2022/10/22 10:05:20;;;;;;;17.00;5.30;;;;;;;;;;5077739;28;20031;-74
2022/10/22 10:07:47;;;;;;;27.33;11.32;;;;;;;;;;5074807;28;20059;-72
2022/10/22 10:10:51;;;;;;;16.50;5.63;;;;;;;;;;5074617;28;20037;-75
2022/10/22 10:13:17;;;;;;;12.43;5.70;;;;;;;;;;4991905;28;20026;-73
2022/10/22 10:15:49;;;;;;;14.38;4.65;;;;;;;;;;4999803;28;20039;-73
2022/10/22 10:18:20;;;;;;;15.85;4.63;;;;;;;;;;5041040;28;20067;-73
2022/10/22 10:21:01;;;;;;;12.00;4.70;;;;;;;;;;5079849;28;20033;-72
2022/10/22 10:23:31;;;;;;;16.83;4.85;;;;;;;;;;5084220;28;20098;-73
2022/10/22 10:26:03;;;;;;;17.10;4.53;;;;;;;;;;5080777;28;20469;-73
2022/10/22 10:28:32;;;;;;;17.80;4.68;;;;;;;;;;5076628;28;20028;-72
2022/10/22 10:31:09;;;;;;;16.52;4.28;;;;;;;;;;5076726;28;20029;-73
2022/10/22 10:33:44;;;;;;;18.60;4.43;;;;;;;;;;5077106;28;20029;-74
2022/10/22 10:36:22;;;;;;;13.90;4.00;;;;;;;;;;5076714;28;20021;-73
2022/10/22 10:39:08;;;;;;;12.98;3.70;;;;;;;;;;5077716;28;20028;-73
2022/10/22 10:41:51;;;;;;;13.65;4.13;;;;;;;;;;5076887;28;20077;-73
2022/10/22 10:44:36;;;;;;;15.32;4.07;;;;;;;;;;5077858;28;20381;-72
2022/10/22 10:47:20;;;;;;;11.25;3.65;;;;;;;;;;5078612;28;20025;-74
2022/10/22 10:49:46;;;;;;;19.65;4.13;;;;;;;;;;5086949;28;20110;-73
2022/10/22 10:52:20;;;;;;;14.25;2.67;;;;;;;;;;5089274;28;20201;-73
2022/10/22 10:55:00;;;;;;;13.45;3.90;;;;;;;;;;5089675;28;20040;-72
2022/10/22 10:57:45;;;;;;;13.40;3.30;;;;;;;;;;5088653;28;20087;-73
2022/10/22 11:00:16;;;;;;;12.95;3.67;;;;;;;;;;5088407;28;20048;-73
2022/10/22 11:02:44;;;;;;;11.10;2.60;;;;;;;;;;5078078;28;20047;-74
2022/10/22 11:05:15;;;;;;;11.98;2.80;;;;;;;;;;5077451;28;20508;-74
2022/10/22 11:07:44;;;;;;;12.43;3.17;;;;;;;;;;5076874;28;20449;-74
2022/10/22 11:10:29;;;;;;;10.45;3.08;;;;;;;;;;5076811;28;20081;-73
2022/10/22 11:12:58;;;;;;;10.45;2.78;;;;;;;;;;5076393;28;20028;-73
2022/10/22 11:15:24;;;;;;;10.52;2.45;;;;;;;;;;5075261;28;20039;-74
2022/10/22 11:17:51;;;;;;;12.13;2.92;;;;;;;;;;5074618;28;20024;-74
2022/10/22 11:20:23;;;;;;;10.82;3.42;;;;;;;;;;5075089;28;20029;-75
2022/10/22 11:23:08;;;;;;;9.73;2.70;;;;;;;;;;5074914;28;20111;-73
2022/10/22 11:25:38;;;;;;;9.85;3.10;;;;;;;;;;5074995;28;20107;-73
2022/10/22 11:28:23;;;;;;;10.48;2.90;;;;;;;;;;5075231;28;20028;-74
2022/10/22 11:30:52;;;;;;;15.07;3.03;;;;;;;;;;5076180;28;20108;-73
2022/10/22 11:33:21;;;;;;;15.98;3.42;;;;;;;;;;5074719;28;20024;-72
2022/10/22 11:35:48;;;;;;;18.48;3.72;;;;;;;;;;5074836;28;20485;-73
2022/10/22 11:38:16;;;;;;;10.23;3.40;;;;;;;;;;5075119;28;20032;-72
2022/10/22 11:41:08;;;;;;;13.27;3.92;;;;;;;;;;5075412;28;20023;-73
2022/10/22 11:43:50;;;;;;;12.02;2.85;;;;;;;;;;5072968;28;20036;-73
2022/10/22 11:46:16;;;;;;;12.32;3.70;;;;;;;;;;5075830;28;20094;-73
2022/10/22 11:48:42;;;;;;;11.75;3.75;;;;;;;;;;5073544;28;20147;-74
2022/10/22 11:51:27;;;;;;;15.98;4.07;;;;;;;;;;5074532;28;20087;-73
2022/10/22 11:53:56;;;;;;;11.85;3.40;;;;;;;;;;5074682;28;20089;-75
2022/10/22 11:56:24;;;;;;;15.65;3.80;;;;;;;;;;5073376;28;20027;-73
2022/10/22 11:58:50;;;;;;;12.43;2.85;;;;;;;;;;5081826;28;20218;-73
2022/10/22 12:01:28;;;;;;;13.88;3.15;;;;;;;;;;5078148;28;20067;-73
2022/10/22 12:04:13;;;;;;;10.32;3.03;;;;;;;;;;5072737;28;20016;-74
2022/10/22 12:06:53;;;;;;;15.07;3.50;;;;;;;;;;5073857;28;20078;-73
2022/10/22 12:09:19;;;;;;;10.80;3.38;;;;;;;;;;5081225;28;20028;-73
2022/10/22 12:11:47;;;;;;;12.88;3.10;;;;;;;;;;5077797;28;20028;-73
2022/10/22 12:14:15;;;;;;;15.05;3.22;;;;;;;;;;5073810;28;20102;-73
2022/10/22 12:16:44;;;;;;;10.38;4.68;;;;;;;;;;5073728;28;20024;-73
2022/10/22 12:19:10;;;;;;;10.70;3.53;;;;;;;;;;5073380;28;20025;-73
2022/10/22 12:21:40;;;;;;;11.60;3.35;;;;;;;;;;5073360;28;20031;-73
2022/10/22 12:24:07;;;;;;;16.45;3.40;;;;;;;;;;5073921;28;20050;-73
2022/10/22 12:26:33;;;;;;;16.05;3.78;;;;;;;;;;5073962;28;20080;-73
2022/10/22 12:29:00;;;;;;;18.23;3.35;;;;;;;;;;5074634;28;20302;-74
2022/10/22 12:31:26;;;;;;;14.80;3.40;;;;;;;;;;5073780;28;20036;-73
2022/10/22 12:33:56;;;;;;;13.43;3.80;;;;;;;;;;5073745;28;20453;-74
2022/10/22 12:36:22;;;;;;;6.78;3.15;;;;;;;;;;5073273;28;20029;-73
2022/10/22 12:38:48;;;;;;;13.80;3.50;;;;;;;;;;5072503;28;20036;-74
2022/10/22 12:41:14;;;;;;;14.30;3.35;;;;;;;;;;5073234;28;20020;-74
2022/10/22 12:43:40;;;;;;;13.50;3.20;;;;;;;;;;5073185;28;20062;-73
2022/10/22 12:46:12;;;;;;;14.45;3.75;;;;;;;;;;5073507;28;20017;-73
2022/10/22 12:48:39;;;;;;;14.98;3.75;;;;;;;;;;5073523;28;20024;-74
2022/10/22 12:51:06;;;;;;;13.38;3.42;;;;;;;;;;5073420;28;20025;-72
2022/10/22 12:53:34;;;;;;;11.57;2.92;;;;;;;;;;5074050;28;20031;-74
2022/10/22 12:56:02;;;;;;;15.30;3.33;;;;;;;;;;5073410;28;20020;-73
2022/10/22 12:58:31;;;;;;;10.85;3.20;;;;;;;;;;5073951;28;20024;-72
2022/10/22 13:01:00;;;;;;;14.70;4.10;;;;;;;;;;5071953;28;20493;-73
2022/10/22 13:03:26;;;;;;;20.50;3.78;;;;;;;;;;5072389;28;20020;-73
2022/10/22 13:05:52;;;;;;;13.93;3.17;;;;;;;;;;5074183;28;20027;-75
2022/10/22 13:08:21;;;;;;;22.30;10.15;;;;;;;;;;5076203;28;20033;-73
2022/10/22 13:10:53;;;;;;;16.67;3.42;;;;;;;;;;5091611;28;20048;-73
2022/10/22 13:13:38;;;;;;;12.68;3.15;;;;;;;;;;5091564;28;20040;-71
2022/10/22 13:16:24;;;;;;;15.70;3.15;;;;;;;;;;5093631;28;20029;-72
2022/10/22 13:18:51;;;;;;;17.90;3.30;;;;;;;;;;5094984;28;20000;-71
2022/10/22 13:21:25;;;;;;;13.05;3.10;;;;;;;;;;5082427;28;20024;-75
2022/10/22 13:23:52;;;;;;;13.05;3.30;;;;;;;;;;5073282;28;20023;-74
2022/10/22 13:26:18;;;;;;;16.20;4.03;;;;;;;;;;5073456;28;20050;-76
2022/10/22 13:28:55;;;;;;;14.27;3.13;;;;;;;;;;5073922;28;20489;-75
2022/10/22 13:31:25;;;;;;;14.38;3.35;;;;;;;;;;5075080;28;20025;-76
2022/10/22 13:33:57;;;;;;;13.88;3.42;;;;;;;;;;5076806;28;20028;-74
2022/10/22 13:36:23;;;;;;;13.45;3.53;;;;;;;;;;5077928;28;20082;-75
2022/10/22 13:38:50;;;;;;;11.85;2.88;;;;;;;;;;5076188;28;20025;-74
2022/10/22 13:41:26;;;;;;;10.18;3.00;;;;;;;;;;5079497;28;20020;-76
2022/10/22 13:43:53;;;;;;;14.70;3.22;;;;;;;;;;5077854;28;20084;-74
2022/10/22 13:46:19;;;;;;;14.10;3.38;;;;;;;;;;5078368;28;20024;-75
2022/10/22 13:48:46;;;;;;;17.17;3.42;;;;;;;;;;5079477;28;20466;-75
2022/10/22 13:51:17;;;;;;;15.57;3.00;;;;;;;;;;5083417;28;20033;-74
2022/10/22 13:53:44;;;;;;;21.23;4.03;;;;;;;;;;5082541;28;20025;-75
2022/10/22 13:56:14;;;;;;;13.27;3.00;;;;;;;;;;5081355;28;20525;-72
2022/10/22 13:58:41;;;;;;;24.35;3.60;;;;;;;;;;5081971;28;20024;-73
2022/10/22 14:01:10;;;;;;;13.20;2.97;;;;;;;;;;5090080;28;20029;-76
2022/10/22 14:03:37;;;;;;;12.65;3.30;;;;;;;;;;5087935;28;20084;-73
2022/10/22 14:06:03;;;;;;;14.65;3.42;;;;;;;;;;5088120;28;20028;-75
2022/10/22 14:08:29;;;;;;;14.77;3.45;;;;;;;;;;5087492;28;20084;-75
2022/10/22 14:10:55;;;;;;;13.55;3.63;;;;;;;;;;5079095;28;20393;-76
2022/10/22 14:13:21;;;;;;;20.08;3.20;;;;;;;;;;5079015;28;20024;-76
2022/10/22 14:15:49;;;;;;;19.10;3.55;;;;;;;;;;5076354;28;20032;-74
2022/10/22 14:18:27;;;;;;;13.73;3.22;;;;;;;;;;5077301;28;20166;-74
2022/10/22 14:20:58;;;;;;;13.80;3.55;;;;;;;;;;5078649;28;20104;-73
2022/10/22 14:23:26;;;;;;;15.32;3.72;;;;;;;;;;5081264;28;20036;-75
2022/10/22 14:25:52;;;;;;;20.52;3.85;;;;;;;;;;5082624;28;20029;-75
2022/10/22 14:28:18;;;;;;;12.68;3.30;;;;;;;;;;5076759;28;20036;-77
2022/10/22 14:30:45;;;;;;;12.43;3.17;;;;;;;;;;5075061;28;20024;-73
2022/10/22 14:33:28;;;;;;;11.43;3.10;;;;;;;;;;5077627;28;20473;-75